Time;durP1;ratioP1;P1;durP2;ratioP2;P2;SDS_P1;SDS_P2;PMS_P1;PMS_P2;Temp;Humidity;BMP_temperature;BMP_pressure;BME280_temperature;BME280_humidity;BME280_pressure;Samples;Min_cycle;Max_cycle;Signal;HPM_P1;HPM_P2
2021/04/05 00:00:19;;;;;;;6.20;3.30;;;;;;;;;;6166481;23;20196;-90
2021/04/05 00:03:24;;;;;;;7.53;3.30;;;;;;;;;;6166011;23;20171;-92
2021/04/05 00:06:28;;;;;;;9.20;3.30;;;;;;;;;;6165798;23;20165;-91
2021/04/05 00:09:33;;;;;;;7.23;3.53;;;;;;;;;;6166456;23;20255;-90
2021/04/05 00:12:41;;;;;;;11.67;3.57;;;;;;;;;;6168491;23;20180;-91
2021/04/05 00:15:46;;;;;;;10.80;3.80;;;;;;;;;;6168686;23;20218;-89
2021/04/05 00:18:50;;;;;;;8.87;3.67;;;;;;;;;;6169271;23;20160;-91
2021/04/05 00:21:54;;;;;;;8.07;3.80;;;;;;;;;;6169417;23;20171;-91
2021/04/05 00:25:00;;;;;;;9.50;3.30;;;;;;;;;;6168035;23;20165;-90
2021/04/05 00:28:05;;;;;;;7.53;3.33;;;;;;;;;;6168209;23;20231;-93
2021/04/05 00:31:09;;;;;;;8.53;3.73;;;;;;;;;;6169920;23;20189;-89
2021/04/05 00:34:14;;;;;;;9.30;3.40;;;;;;;;;;6168777;23;20207;-88
2021/04/05 00:37:18;;;;;;;8.33;3.60;;;;;;;;;;6168964;23;20192;-90
2021/04/05 00:40:25;;;;;;;9.70;3.70;;;;;;;;;;6168827;23;20201;-88
2021/04/05 00:43:30;;;;;;;7.37;3.43;;;;;;;;;;6169097;23;20176;-91
2021/04/05 00:46:35;;;;;;;10.67;3.70;;;;;;;;;;6169881;23;20548;-91
2021/04/05 00:49:39;;;;;;;8.70;3.33;;;;;;;;;;6168855;23;20200;-91
2021/04/05 00:52:45;;;;;;;8.13;3.37;;;;;;;;;;6169686;23;20170;-89
2021/04/05 00:55:50;;;;;;;10.50;3.93;;;;;;;;;;6169669;23;20176;-92
2021/04/05 00:58:55;;;;;;;11.63;3.83;;;;;;;;;;6170133;23;20220;-92
2021/04/05 01:02:01;;;;;;;8.07;3.60;;;;;;;;;;6170764;23;20157;-90
2021/04/05 01:05:07;;;;;;;6.50;3.53;;;;;;;;;;6168983;23;20512;-90
2021/04/05 01:08:11;;;;;;;9.10;3.43;;;;;;;;;;6169564;23;20173;-89
2021/04/05 01:11:18;;;;;;;7.97;3.80;;;;;;;;;;6169852;23;20672;-90
2021/04/05 01:14:22;;;;;;;7.20;3.30;;;;;;;;;;6169688;23;20172;-92
2021/04/05 01:17:27;;;;;;;8.27;3.60;;;;;;;;;;6168253;23;20506;-91
2021/04/05 01:20:33;;;;;;;8.53;3.50;;;;;;;;;;6169162;23;20376;-90
2021/04/05 01:23:38;;;;;;;8.63;3.80;;;;;;;;;;6167932;23;20198;-91
2021/04/05 01:26:42;;;;;;;14.10;4.10;;;;;;;;;;6169363;23;20200;-91
2021/04/05 01:29:47;;;;;;;6.60;3.70;;;;;;;;;;6168233;23;20192;-91
2021/04/05 01:32:52;;;;;;;7.70;3.70;;;;;;;;;;6167966;23;20197;-89
2021/04/05 01:35:57;;;;;;;7.87;3.43;;;;;;;;;;6170643;23;20172;-90
2021/04/05 01:39:04;;;;;;;11.70;3.90;;;;;;;;;;6180927;23;20163;-88
2021/04/05 01:42:08;;;;;;;8.50;3.73;;;;;;;;;;6180323;23;20168;-91
2021/04/05 01:45:17;;;;;;;7.83;3.57;;;;;;;;;;6180040;23;20233;-88
2021/04/05 01:48:23;;;;;;;12.10;4.27;;;;;;;;;;6178738;23;20185;-87
2021/04/05 01:51:28;;;;;;;7.50;3.70;;;;;;;;;;6179820;23;20232;-90
2021/04/05 01:54:34;;;;;;;7.40;4.13;;;;;;;;;;6179105;23;20231;-90
2021/04/05 01:57:39;;;;;;;8.70;3.60;;;;;;;;;;6177324;23;20352;-90
2021/04/05 02:00:44;;;;;;;8.90;4.13;;;;;;;;;;6179937;23;20194;-90
2021/04/05 02:03:49;;;;;;;9.23;4.00;;;;;;;;;;6180215;23;20164;-89
2021/04/05 02:06:51;;;;;;;8.93;3.93;;;;;;;;;;6177019;23;20216;-90
2021/04/05 02:09:57;;;;;;;9.17;4.33;;;;;;;;;;6179729;23;20219;-90
2021/04/05 02:13:01;;;;;;;8.57;4.47;;;;;;;;;;6182237;23;20156;-92
2021/04/05 02:16:06;;;;;;;8.73;4.00;;;;;;;;;;6178030;23;20196;-90
2021/04/05 02:19:14;;;;;;;12.70;4.03;;;;;;;;;;6178301;23;20171;-91
2021/04/05 02:22:19;;;;;;;11.27;4.17;;;;;;;;;;6176433;23;20699;-91
2021/04/05 02:25:26;;;;;;;9.40;4.13;;;;;;;;;;6177873;23;20152;-91
2021/04/05 02:28:35;;;;;;;6.83;3.47;;;;;;;;;;6179085;23;20172;-92
2021/04/05 02:31:44;;;;;;;9.10;4.27;;;;;;;;;;6178441;23;20211;-91
2021/04/05 02:34:49;;;;;;;8.40;4.27;;;;;;;;;;6178001;23;20642;-89
2021/04/05 02:37:54;;;;;;;13.10;4.40;;;;;;;;;;6177415;23;20618;-91
2021/04/05 02:41:00;;;;;;;7.10;3.60;;;;;;;;;;6179711;23;20231;-90
2021/04/05 02:44:05;;;;;;;10.27;4.30;;;;;;;;;;6179380;23;20187;-90
2021/04/05 02:47:09;;;;;;;7.13;4.00;;;;;;;;;;6178342;23;20164;-92
2021/04/05 02:50:14;;;;;;;7.97;3.70;;;;;;;;;;6178870;23;20190;-91
2021/04/05 02:53:19;;;;;;;11.37;4.60;;;;;;;;;;6178078;23;20288;-89
2021/04/05 02:56:26;;;;;;;10.77;4.00;;;;;;;;;;6177761;23;20188;-91
2021/04/05 02:59:30;;;;;;;9.83;4.50;;;;;;;;;;6178261;23;20152;-90
2021/04/05 03:02:36;;;;;;;13.07;4.43;;;;;;;;;;6177639;23;20211;-90
2021/04/05 03:05:42;;;;;;;10.43;4.10;;;;;;;;;;6176735;23;20191;-90
2021/04/05 03:08:46;;;;;;;8.27;4.13;;;;;;;;;;6177548;23;20215;-91
2021/04/05 03:11:54;;;;;;;8.70;4.23;;;;;;;;;;6177429;23;20167;-90
2021/04/05 03:14:59;;;;;;;9.43;4.20;;;;;;;;;;6177541;23;20312;-89
2021/04/05 03:18:06;;;;;;;11.23;4.47;;;;;;;;;;6178494;23;20544;-91
2021/04/05 03:21:12;;;;;;;10.57;4.33;;;;;;;;;;6176711;23;20175;-90
2021/04/05 03:24:17;;;;;;;7.67;4.37;;;;;;;;;;6177277;23;20187;-91
2021/04/05 03:27:22;;;;;;;12.03;4.50;;;;;;;;;;6176252;23;20172;-91
2021/04/05 03:30:30;;;;;;;10.97;4.70;;;;;;;;;;6176497;23;20266;-89
2021/04/05 03:33:36;;;;;;;10.90;3.83;;;;;;;;;;6178492;23;20171;-91
2021/04/05 03:36:43;;;;;;;11.13;4.73;;;;;;;;;;6176952;23;20499;-90
2021/04/05 03:39:49;;;;;;;8.73;4.10;;;;;;;;;;6178051;23;20215;-91
2021/04/05 03:42:57;;;;;;;9.33;4.27;;;;;;;;;;6177203;23;20187;-90
2021/04/05 03:46:05;;;;;;;10.97;4.53;;;;;;;;;;6176999;23;20167;-92
2021/04/05 03:49:12;;;;;;;9.90;4.47;;;;;;;;;;6178555;23;20272;-90
2021/04/05 03:52:19;;;;;;;8.40;4.33;;;;;;;;;;6176264;23;20192;-90
2021/04/05 03:55:26;;;;;;;6.93;4.10;;;;;;;;;;6174719;23;20624;-90
2021/04/05 03:58:32;;;;;;;12.40;4.50;;;;;;;;;;6175679;23;20570;-90
2021/04/05 04:01:46;;;;;;;9.03;4.77;;;;;;;;;;6175901;23;20171;-91
2021/04/05 04:04:58;;;;;;;9.50;4.53;;;;;;;;;;6175094;23;20172;-88
2021/04/05 04:08:10;;;;;;;9.43;4.10;;;;;;;;;;6176193;23;20199;-91
2021/04/05 04:11:22;;;;;;;18.27;5.10;;;;;;;;;;6174739;23;20168;-91
2021/04/05 04:14:27;;;;;;;8.63;4.37;;;;;;;;;;6175302;23;20169;-91
2021/04/05 04:17:34;;;;;;;10.93;4.63;;;;;;;;;;6175087;23;20631;-89
2021/04/05 04:20:39;;;;;;;11.93;4.73;;;;;;;;;;6175543;23;20568;-88
2021/04/05 04:23:43;;;;;;;9.63;4.67;;;;;;;;;;6175707;23;20171;-89
2021/04/05 04:26:48;;;;;;;13.50;4.93;;;;;;;;;;6175048;23;20631;-90
2021/04/05 04:29:55;;;;;;;7.57;4.33;;;;;;;;;;6176038;23;20199;-89
2021/04/05 04:33:03;;;;;;;15.83;5.17;;;;;;;;;;6175938;23;20176;-90
2021/04/05 04:36:09;;;;;;;9.50;5.07;;;;;;;;;;6175229;23;20188;-90
2021/04/05 04:39:14;;;;;;;11.90;5.17;;;;;;;;;;6174917;23;20167;-90
2021/04/05 04:42:19;;;;;;;12.80;4.87;;;;;;;;;;6176833;23;20168;-89
2021/04/05 04:45:25;;;;;;;11.63;4.70;;;;;;;;;;6176411;23;20172;-89
2021/04/05 04:48:29;;;;;;;9.30;5.00;;;;;;;;;;6176718;23;20179;-90
2021/04/05 04:51:34;;;;;;;9.80;4.40;;;;;;;;;;6176363;23;20292;-91
2021/04/05 04:54:39;;;;;;;11.03;4.70;;;;;;;;;;6177461;23;20172;-91
2021/04/05 04:57:43;;;;;;;13.93;4.80;;;;;;;;;;6179160;23;20167;-91
2021/04/05 05:00:49;;;;;;;10.90;4.83;;;;;;;;;;6177979;23;20171;-92
2021/04/05 05:03:56;;;;;;;11.43;5.10;;;;;;;;;;6179143;23;20183;-91
2021/04/05 05:07:01;;;;;;;9.80;4.50;;;;;;;;;;6179368;23;20184;-92
2021/04/05 05:10:06;;;;;;;7.67;4.30;;;;;;;;;;6179050;23;20299;-90
2021/04/05 05:13:11;;;;;;;8.97;4.53;;;;;;;;;;6177768;23;20195;-89
2021/04/05 05:16:16;;;;;;;8.07;4.60;;;;;;;;;;6178799;23;20176;-91
2021/04/05 05:19:21;;;;;;;13.03;4.80;;;;;;;;;;6179237;23;20183;-91
2021/04/05 05:22:27;;;;;;;8.27;4.47;;;;;;;;;;6180013;23;20188;-91
2021/04/05 05:25:32;;;;;;;12.70;5.13;;;;;;;;;;6177583;23;20263;-90
2021/04/05 05:28:38;;;;;;;15.57;4.93;;;;;;;;;;6177278;23;20195;-91
2021/04/05 05:31:44;;;;;;;11.30;4.63;;;;;;;;;;6177529;23;20156;-91
2021/04/05 05:34:48;;;;;;;8.17;4.83;;;;;;;;;;6177922;23;20513;-90
2021/04/05 05:37:53;;;;;;;8.77;4.77;;;;;;;;;;6178580;23;20219;-90
2021/04/05 05:41:00;;;;;;;8.63;4.20;;;;;;;;;;6177573;23;20172;-92
2021/04/05 05:44:09;;;;;;;10.70;4.47;;;;;;;;;;6178548;22;20172;-90
2021/04/05 05:47:19;;;;;;;12.27;5.10;;;;;;;;;;6177680;23;20171;-90
2021/04/05 05:50:26;;;;;;;9.93;4.97;;;;;;;;;;6178518;23;20195;-92
2021/04/05 05:53:36;;;;;;;9.63;4.33;;;;;;;;;;6179325;23;20601;-88
2021/04/05 05:56:44;;;;;;;9.90;4.70;;;;;;;;;;6178980;23;20243;-90
2021/04/05 05:59:51;;;;;;;9.03;4.23;;;;;;;;;;6179414;23;20148;-90
2021/04/05 06:03:05;;;;;;;9.33;4.43;;;;;;;;;;6179401;23;20196;-90
2021/04/05 06:06:15;;;;;;;9.67;4.47;;;;;;;;;;6179577;23;20194;-92
2021/04/05 06:09:22;;;;;;;9.43;4.27;;;;;;;;;;6180379;23;20212;-89
2021/04/05 06:12:30;;;;;;;12.73;4.70;;;;;;;;;;6180972;23;20172;-89
2021/04/05 06:15:44;;;;;;;10.23;4.80;;;;;;;;;;6178562;23;20171;-91
2021/04/05 06:19:03;;;;;;;9.37;4.60;;;;;;;;;;6178076;23;20188;-90
2021/04/05 06:22:12;;;;;;;13.80;4.87;;;;;;;;;;6179487;23;20229;-91
2021/04/05 06:25:23;;;;;;;10.13;4.70;;;;;;;;;;6178475;23;20223;-93
2021/04/05 06:28:34;;;;;;;8.73;4.80;;;;;;;;;;6178406;23;20183;-89
2021/04/05 06:31:50;;;;;;;10.43;4.53;;;;;;;;;;6177904;23;20188;-90
2021/04/05 06:35:08;;;;;;;10.60;4.37;;;;;;;;;;6180371;22;20177;-93
2021/04/05 06:38:15;;;;;;;10.37;4.90;;;;;;;;;;6177791;23;20196;-90
2021/04/05 06:41:34;;;;;;;9.57;4.40;;;;;;;;;;6180104;23;20221;-90
2021/04/05 06:45:11;;;;;;;8.50;4.63;;;;;;;;;;6153655;23;20187;-89
2021/04/05 06:48:29;;;;;;;9.80;4.53;;;;;;;;;;6177202;23;20215;-90
2021/04/05 06:51:53;;;;;;;11.77;4.40;;;;;;;;;;6178447;23;20196;-89
2021/04/05 06:55:20;;;;;;;10.27;5.00;;;;;;;;;;6178550;23;20219;-90
2021/04/05 06:58:55;;;;;;;12.27;4.60;;;;;;;;;;6179883;23;20172;-90
2021/04/05 07:02:12;;;;;;;9.87;4.87;;;;;;;;;;6090548;23;20174;-92
2021/04/05 10:03:28;;;;;;;8.48;3.13;;;;;;;;;;6200361;22;20211;-91
2021/04/05 10:06:34;;;;;;;7.65;2.67;;;;;;;;;;6210445;23;20190;-92
2021/04/05 10:09:39;;;;;;;7.47;2.88;;;;;;;;;;6209855;23;20194;-89
2021/04/05 10:12:44;;;;;;;6.80;2.58;;;;;;;;;;6209549;23;20222;-89
2021/04/05 10:15:51;;;;;;;7.35;2.90;;;;;;;;;;6209770;23;20170;-90
2021/04/05 10:18:59;;;;;;;5.50;2.20;;;;;;;;;;6210285;22;20236;-87
2021/04/05 10:22:08;;;;;;;6.80;2.42;;;;;;;;;;6194957;23;20276;-91
2021/04/05 10:25:13;;;;;;;5.45;2.90;;;;;;;;;;6211499;23;20163;-89
2021/04/05 10:28:18;;;;;;;9.32;2.83;;;;;;;;;;6210037;23;20175;-90
2021/04/05 10:31:25;;;;;;;7.00;2.28;;;;;;;;;;6209726;23;20218;-92
2021/04/05 10:34:33;;;;;;;6.60;2.70;;;;;;;;;;6210837;22;20179;-89
2021/04/05 10:37:41;;;;;;;6.72;2.97;;;;;;;;;;6214679;23;20171;-89
2021/04/05 10:40:46;;;;;;;5.75;2.60;;;;;;;;;;6212020;23;20151;-91
2021/04/05 10:43:52;;;;;;;7.43;2.72;;;;;;;;;;6210652;23;20172;-89
2021/04/05 10:46:59;;;;;;;5.88;2.35;;;;;;;;;;6208044;23;20175;-91
2021/04/05 10:50:07;;;;;;;6.78;2.45;;;;;;;;;;6210729;23;20182;-91
2021/04/05 10:53:14;;;;;;;9.25;2.70;;;;;;;;;;6210333;23;20194;-90
2021/04/05 10:56:20;;;;;;;4.20;2.40;;;;;;;;;;6212544;22;20146;-93
2021/04/05 10:59:30;;;;;;;6.75;2.78;;;;;;;;;;6213445;23;20171;-90
2021/04/05 11:02:41;;;;;;;5.95;2.60;;;;;;;;;;6213593;23;20260;-89
2021/04/05 11:05:48;;;;;;;7.30;2.63;;;;;;;;;;6212164;23;20244;-91
2021/04/05 11:08:54;;;;;;;6.85;2.80;;;;;;;;;;6208406;23;20194;-91
2021/04/05 11:11:59;;;;;;;5.63;2.42;;;;;;;;;;6209543;23;20187;-92
2021/04/05 11:15:05;;;;;;;6.63;2.30;;;;;;;;;;6209809;23;20175;-91
2021/04/05 11:18:12;;;;;;;4.22;2.22;;;;;;;;;;6209691;23;20223;-92
2021/04/05 11:21:19;;;;;;;11.18;2.90;;;;;;;;;;6209439;22;20223;-92
2021/04/05 11:24:29;;;;;;;6.10;2.60;;;;;;;;;;6209651;23;20183;-93
2021/04/05 11:27:36;;;;;;;11.38;3.80;;;;;;;;;;6208559;23;20156;-92
2021/04/05 11:30:42;;;;;;;6.97;2.95;;;;;;;;;;6211170;23;20246;-93
2021/04/05 11:33:49;;;;;;;5.20;2.90;;;;;;;;;;6208622;23;20494;-93
2021/04/05 11:36:56;;;;;;;6.68;2.28;;;;;;;;;;6209135;23;20175;-94
2021/04/05 11:40:03;;;;;;;8.05;3.15;;;;;;;;;;6209685;23;20223;-94
2021/04/05 11:43:13;;;;;;;8.35;2.70;;;;;;;;;;6210403;23;20199;-92
2021/04/05 11:46:19;;;;;;;10.70;3.67;;;;;;;;;;6211173;22;20171;-92
2021/04/05 11:49:29;;;;;;;9.02;2.88;;;;;;;;;;6211966;23;20167;-90
2021/04/05 11:52:41;;;;;;;6.05;2.10;;;;;;;;;;6210933;23;20199;-92
2021/04/05 11:55:47;;;;;;;6.97;2.13;;;;;;;;;;6212149;23;20191;-88
2021/04/05 11:58:59;;;;;;;6.28;2.05;;;;;;;;;;6212274;23;20506;-89
2021/04/05 12:02:07;;;;;;;6.40;2.20;;;;;;;;;;6211252;23;20187;-90
2021/04/05 12:05:13;;;;;;;4.57;1.90;;;;;;;;;;6213510;23;20187;-90
2021/04/05 12:08:22;;;;;;;5.50;1.90;;;;;;;;;;6213525;23;20220;-89
2021/04/05 12:11:27;;;;;;;7.15;1.63;;;;;;;;;;6215311;23;20242;-90
2021/04/05 12:14:34;;;;;;;5.18;2.05;;;;;;;;;;6214886;23;20270;-90
2021/04/05 12:17:38;;;;;;;6.45;1.90;;;;;;;;;;6214084;23;20336;-89
2021/04/05 12:20:44;;;;;;;9.07;1.63;;;;;;;;;;6216115;23;20150;-91
2021/04/05 12:23:56;;;;;;;4.95;1.50;;;;;;;;;;6215553;23;20191;-91
2021/04/05 12:27:02;;;;;;;6.22;1.60;;;;;;;;;;6212911;23;20187;-90
2021/04/05 12:30:09;;;;;;;9.68;1.70;;;;;;;;;;6212483;22;20218;-90
2021/04/05 12:33:16;;;;;;;3.70;1.70;;;;;;;;;;6213761;23;20170;-89
2021/04/05 12:36:21;;;;;;;8.82;2.30;;;;;;;;;;6212786;23;20155;-89
2021/04/05 12:39:31;;;;;;;5.90;1.52;;;;;;;;;;6212173;23;20155;-89
2021/04/05 12:42:38;;;;;;;9.18;1.55;;;;;;;;;;6212978;23;20230;-92
2021/04/05 12:45:49;;;;;;;8.23;1.70;;;;;;;;;;6212675;23;20621;-88
2021/04/05 12:48:57;;;;;;;9.02;1.80;;;;;;;;;;6213066;23;20221;-89
2021/04/05 12:52:04;;;;;;;8.77;1.73;;;;;;;;;;6210023;23;20549;-90
2021/04/05 12:55:11;;;;;;;4.03;1.63;;;;;;;;;;6213508;22;20214;-91
2021/04/05 12:58:19;;;;;;;7.00;1.58;;;;;;;;;;6212517;23;20222;-90
2021/04/05 13:01:27;;;;;;;8.55;2.22;;;;;;;;;;6212170;23;20615;-90
2021/04/05 13:04:33;;;;;;;2.80;1.60;;;;;;;;;;6211097;23;20574;-91
2021/04/05 13:07:46;;;;;;;4.60;1.75;;;;;;;;;;6208939;23;20564;-90
2021/04/05 13:10:54;;;;;;;9.23;1.63;;;;;;;;;;6209214;23;20544;-90
2021/04/05 13:14:00;;;;;;;6.15;1.60;;;;;;;;;;6210832;23;20172;-91
2021/04/05 13:17:05;;;;;;;10.05;1.95;;;;;;;;;;6210838;23;20222;-87
2021/04/05 13:20:13;;;;;;;5.50;1.75;;;;;;;;;;6210813;23;20164;-89
2021/04/05 13:23:23;;;;;;;3.65;1.50;;;;;;;;;;6210781;23;20167;-86
2021/04/05 13:26:33;;;;;;;6.07;1.60;;;;;;;;;;6213306;23;20151;-88
2021/04/05 13:29:40;;;;;;;5.07;1.83;;;;;;;;;;6211381;23;20171;-87
2021/04/05 13:32:45;;;;;;;5.30;1.67;;;;;;;;;;6212133;23;20187;-90
2021/04/05 13:35:51;;;;;;;5.43;1.80;;;;;;;;;;6215250;23;20563;-86
2021/04/05 13:39:00;;;;;;;8.25;2.10;;;;;;;;;;6210918;23;20174;-88
2021/04/05 13:42:08;;;;;;;10.48;1.83;;;;;;;;;;6207866;23;20614;-87
2021/04/05 13:45:14;;;;;;;7.00;2.83;;;;;;;;;;6207069;23;20172;-88
2021/04/05 13:48:23;;;;;;;10.93;2.45;;;;;;;;;;6207714;23;20294;-90
2021/04/05 13:51:29;;;;;;;4.65;2.00;;;;;;;;;;6211762;23;20194;-87
2021/04/05 13:54:36;;;;;;;7.00;1.90;;;;;;;;;;6210955;23;20289;-89
2021/04/05 13:57:43;;;;;;;6.35;2.10;;;;;;;;;;6211156;23;20463;-89
2021/04/05 14:00:49;;;;;;;7.68;2.60;;;;;;;;;;6210328;23;20699;-87
2021/04/05 14:03:55;;;;;;;9.45;2.42;;;;;;;;;;6210599;23;20689;-88
2021/04/05 14:07:00;;;;;;;6.63;2.28;;;;;;;;;;6209816;23;20217;-88
2021/04/05 14:10:06;;;;;;;9.88;2.28;;;;;;;;;;6209108;23;20194;-87
2021/04/05 14:13:13;;;;;;;5.50;1.80;;;;;;;;;;6208827;23;20175;-90
2021/04/05 14:16:19;;;;;;;8.20;2.60;;;;;;;;;;6223714;23;20215;-87
2021/04/05 14:19:29;;;;;;;10.38;3.00;;;;;;;;;;6206291;23;20290;-87
2021/04/05 14:22:36;;;;;;;6.53;2.90;;;;;;;;;;6204344;23;20167;-90
2021/04/05 14:25:45;;;;;;;6.18;2.33;;;;;;;;;;6206330;23;20508;-87
2021/04/05 14:28:52;;;;;;;9.65;2.40;;;;;;;;;;6205559;23;20223;-88
2021/04/05 14:31:59;;;;;;;6.57;2.60;;;;;;;;;;6206080;23;20211;-89
2021/04/05 14:35:05;;;;;;;9.05;2.70;;;;;;;;;;6207781;23;20255;-90
2021/04/05 14:38:11;;;;;;;7.55;2.55;;;;;;;;;;6206545;23;20171;-89
2021/04/05 14:41:18;;;;;;;11.43;3.28;;;;;;;;;;6207041;23;20195;-89
2021/04/05 14:44:34;;;;;;;8.63;2.70;;;;;;;;;;6206724;23;20174;-88
2021/04/05 14:47:40;;;;;;;14.52;3.97;;;;;;;;;;6207202;22;20170;-88
2021/04/05 14:50:47;;;;;;;9.90;2.65;;;;;;;;;;6207249;23;20260;-89
2021/04/05 14:53:57;;;;;;;6.43;2.78;;;;;;;;;;6207127;23;20218;-89
2021/04/05 14:57:03;;;;;;;6.15;2.45;;;;;;;;;;6206997;23;20167;-89
2021/04/05 15:00:12;;;;;;;7.20;2.80;;;;;;;;;;6208515;23;20151;-89
2021/04/05 15:03:19;;;;;;;7.80;3.03;;;;;;;;;;6209170;23;20287;-90
2021/04/05 15:06:26;;;;;;;11.32;3.40;;;;;;;;;;6209023;22;20207;-90
2021/04/05 15:09:31;;;;;;;14.35;3.17;;;;;;;;;;6209262;23;20178;-88
2021/04/05 15:12:39;;;;;;;9.23;2.60;;;;;;;;;;6211724;23;20174;-90
2021/04/05 15:15:47;;;;;;;4.80;1.75;;;;;;;;;;6209578;23;20170;-88
2021/04/05 15:18:52;;;;;;;11.52;2.00;;;;;;;;;;6210198;23;20598;-89
2021/04/05 15:21:57;;;;;;;10.75;1.70;;;;;;;;;;6210570;23;20178;-90
2021/04/05 15:25:03;;;;;;;7.72;1.73;;;;;;;;;;6206156;23;20167;-89
2021/04/05 15:28:09;;;;;;;9.98;2.40;;;;;;;;;;6210445;23;20283;-89
2021/04/05 15:31:18;;;;;;;6.88;1.90;;;;;;;;;;6210731;22;20194;-90
2021/04/05 15:34:24;;;;;;;8.80;2.50;;;;;;;;;;6211832;23;20195;-89
2021/04/05 15:37:29;;;;;;;11.00;2.00;;;;;;;;;;6209665;23;20287;-90
2021/04/05 15:40:35;;;;;;;8.20;1.95;;;;;;;;;;6209416;23;20223;-90
2021/04/05 15:43:43;;;;;;;9.00;1.80;;;;;;;;;;6210449;23;20171;-91
2021/04/05 15:46:51;;;;;;;8.48;1.77;;;;;;;;;;6211985;23;20217;-91
2021/04/05 15:49:59;;;;;;;8.35;1.70;;;;;;;;;;6207898;23;20190;-91
2021/04/05 15:53:07;;;;;;;6.78;1.80;;;;;;;;;;6214455;22;20179;-92
2021/04/05 15:56:15;;;;;;;10.43;1.90;;;;;;;;;;6214932;23;20618;-94
2021/04/05 15:59:33;;;;;;;7.38;1.77;;;;;;;;;;6219125;23;20215;-92
2021/04/05 16:02:53;;;;;;;6.53;1.40;;;;;;;;;;6234777;22;20280;-92
2021/04/05 16:06:00;;;;;;;5.43;1.63;;;;;;;;;;6217693;23;20176;-92
2021/04/05 16:09:09;;;;;;;14.20;1.80;;;;;;;;;;6215794;23;20256;-92
2021/04/05 16:12:24;;;;;;;6.22;1.73;;;;;;;;;;6216506;23;20175;-91
2021/04/05 16:15:29;;;;;;;9.23;1.80;;;;;;;;;;6215420;23;20168;-93
2021/04/05 16:18:37;;;;;;;9.50;2.15;;;;;;;;;;6214913;23;20167;-93
2021/04/05 16:21:44;;;;;;;7.90;1.70;;;;;;;;;;6216026;23;20229;-92
2021/04/05 16:24:52;;;;;;;10.57;1.40;;;;;;;;;;6214872;23;20171;-93
2021/04/05 16:27:59;;;;;;;7.82;1.88;;;;;;;;;;6215128;23;20168;-93
2021/04/05 16:31:07;;;;;;;6.60;1.92;;;;;;;;;;6215729;23;20238;-92
2021/04/05 16:34:24;;;;;;;7.95;2.50;;;;;;;;;;6215699;23;20223;-93
2021/04/05 16:37:30;;;;;;;8.70;2.60;;;;;;;;;;6215200;23;20176;-92
2021/04/05 16:40:40;;;;;;;9.85;2.20;;;;;;;;;;6214384;23;20199;-92
2021/04/05 16:43:47;;;;;;;7.22;1.83;;;;;;;;;;6214071;23;20167;-91
2021/04/05 16:46:57;;;;;;;6.40;1.80;;;;;;;;;;6213204;23;20197;-92
2021/04/05 16:50:05;;;;;;;14.63;2.10;;;;;;;;;;6213207;23;20501;-91
2021/04/05 16:53:14;;;;;;;5.67;2.00;;;;;;;;;;6217543;23;20167;-93
2021/04/05 16:56:23;;;;;;;9.80;2.07;;;;;;;;;;6216666;23;20171;-92
2021/04/05 17:03:24;;;;;;;10.60;2.43;;;;;;;;;;6217734;23;20227;-93
2021/04/05 17:06:34;;;;;;;8.50;2.93;;;;;;;;;;6218447;22;20171;-93
2021/04/05 17:09:42;;;;;;;8.83;3.30;;;;;;;;;;6219674;23;20158;-92
2021/04/05 17:12:48;;;;;;;12.57;3.93;;;;;;;;;;6217421;23;20171;-93
2021/04/05 17:15:54;;;;;;;16.30;4.83;;;;;;;;;;6216443;23;20187;-92
2021/04/05 17:19:01;;;;;;;14.03;5.17;;;;;;;;;;6216575;22;20175;-93
2021/04/05 17:22:09;;;;;;;16.93;5.87;;;;;;;;;;6217063;23;20194;-93
2021/04/05 17:25:15;;;;;;;19.43;5.07;;;;;;;;;;6217410;23;20208;-92
2021/04/05 17:28:24;;;;;;;19.43;5.77;;;;;;;;;;6215578;23;20218;-91
2021/04/05 17:31:30;;;;;;;15.63;6.33;;;;;;;;;;6216765;23;20242;-93
2021/04/05 17:34:46;;;;;;;19.27;6.73;;;;;;;;;;6216440;23;20203;-91
2021/04/05 17:37:56;;;;;;;18.10;6.37;;;;;;;;;;6214691;23;20163;-91
2021/04/05 17:41:05;;;;;;;15.63;6.67;;;;;;;;;;6213390;23;20216;-93
2021/04/05 17:44:12;;;;;;;15.53;6.77;;;;;;;;;;6215102;23;20195;-90
2021/04/05 17:47:36;;;;;;;16.60;6.90;;;;;;;;;;6212456;23;20216;-92
2021/04/05 17:51:04;;;;;;;16.53;7.10;;;;;;;;;;6213722;23;20251;-93
2021/04/05 17:54:16;;;;;;;15.27;7.43;;;;;;;;;;6214288;23;20170;-92
2021/04/05 17:57:24;;;;;;;15.53;7.10;;;;;;;;;;6214054;23;20172;-93
2021/04/05 18:00:31;;;;;;;18.87;7.03;;;;;;;;;;6214366;23;20537;-92
2021/04/05 18:03:47;;;;;;;13.13;6.20;;;;;;;;;;6213694;23;20197;-94
2021/04/05 18:06:59;;;;;;;17.17;6.17;;;;;;;;;;6213416;23;20148;-91
2021/04/05 18:10:22;;;;;;;13.23;5.90;;;;;;;;;;6214435;23;20176;-90
2021/04/05 18:13:35;;;;;;;9.47;4.10;;;;;;;;;;6213409;23;20242;-92
2021/04/05 18:16:43;;;;;;;6.47;3.60;;;;;;;;;;6213647;23;20250;-90
2021/04/05 18:19:55;;;;;;;7.70;3.20;;;;;;;;;;6213152;23;20151;-89
2021/04/05 18:23:07;;;;;;;7.93;3.40;;;;;;;;;;6214530;23;20179;-92
2021/04/05 18:26:26;;;;;;;6.20;2.97;;;;;;;;;;6215762;23;20215;-92
2021/04/05 18:29:44;;;;;;;10.03;3.23;;;;;;;;;;6215331;23;20151;-89
2021/04/05 18:32:56;;;;;;;7.73;3.20;;;;;;;;;;6214860;22;20210;-91
2021/04/05 18:36:04;;;;;;;6.87;3.20;;;;;;;;;;6212827;23;20167;-90
2021/04/05 18:39:09;;;;;;;5.93;2.47;;;;;;;;;;6217042;23;20159;-90
2021/04/05 18:42:14;;;;;;;3.53;1.83;;;;;;;;;;6210716;23;20213;-91
2021/04/05 18:45:24;;;;;;;5.27;2.57;;;;;;;;;;6209967;23;20170;-91
2021/04/05 18:48:37;;;;;;;8.17;2.93;;;;;;;;;;6209906;23;20171;-90
2021/04/05 18:51:48;;;;;;;6.53;2.93;;;;;;;;;;6208950;23;20649;-91
2021/04/05 18:54:55;;;;;;;4.10;2.30;;;;;;;;;;6217709;23;20172;-91
2021/04/05 18:58:02;;;;;;;6.00;2.50;;;;;;;;;;6212767;23;20155;-92
2021/04/05 19:01:08;;;;;;;3.57;2.00;;;;;;;;;;6213117;23;20222;-90
2021/04/05 19:04:14;;;;;;;5.80;2.10;;;;;;;;;;6213055;23;20250;-91
2021/04/05 19:07:24;;;;;;;5.27;2.27;;;;;;;;;;6211861;23;20171;-90
2021/04/05 19:10:32;;;;;;;2.30;1.47;;;;;;;;;;6212093;23;20198;-89
2021/04/05 19:13:43;;;;;;;4.60;2.03;;;;;;;;;;6211599;23;20183;-91
2021/04/05 19:16:51;;;;;;;2.70;1.30;;;;;;;;;;6211129;23;20182;-90
2021/04/05 19:19:58;;;;;;;1.00;0.80;;;;;;;;;;6213048;23;20175;-91
2021/04/05 19:23:21;;;;;;;0.80;0.60;;;;;;;;;;6218401;23;20202;-90
2021/04/05 19:26:38;;;;;;;0.70;0.70;;;;;;;;;;6228877;23;20168;-89
2021/04/05 19:29:53;;;;;;;0.47;0.47;;;;;;;;;;6211041;23;20167;-89
2021/04/05 19:33:07;;;;;;;0.77;0.60;;;;;;;;;;6211012;23;20195;-90
2021/04/05 19:36:19;;;;;;;1.53;0.70;;;;;;;;;;6212854;23;20166;-89
2021/04/05 19:39:28;;;;;;;0.93;0.60;;;;;;;;;;6212146;23;20216;-90
2021/04/05 19:42:48;;;;;;;0.47;0.47;;;;;;;;;;6212170;23;20163;-91
2021/04/05 19:46:11;;;;;;;0.57;0.47;;;;;;;;;;6213267;23;20178;-90
2021/04/05 19:49:28;;;;;;;0.30;0.30;;;;;;;;;;6212907;23;20175;-90
2021/04/05 19:52:36;;;;;;;0.30;0.30;;;;;;;;;;6213027;23;20171;-90
2021/04/05 19:55:44;;;;;;;0.30;0.30;;;;;;;;;;6212839;23;20621;-90
2021/04/05 19:59:00;;;;;;;0.40;0.40;;;;;;;;;;6212109;23;20195;-92
2021/04/05 20:02:10;;;;;;;0.53;0.40;;;;;;;;;;6212359;23;20164;-90
2021/04/05 20:05:18;;;;;;;0.43;0.33;;;;;;;;;;6212240;23;20190;-91
2021/04/05 20:08:35;;;;;;;0.63;0.50;;;;;;;;;;6211733;23;20551;-91
2021/04/05 20:11:44;;;;;;;0.70;0.60;;;;;;;;;;6210397;23;20697;-91
2021/04/05 20:14:56;;;;;;;1.27;0.80;;;;;;;;;;6210159;23;20155;-91
2021/04/05 20:18:07;;;;;;;0.93;0.60;;;;;;;;;;6209871;23;20218;-91
2021/04/05 20:21:15;;;;;;;10.10;3.10;;;;;;;;;;6211117;23;20211;-90
2021/04/05 20:24:22;;;;;;;3.13;1.50;;;;;;;;;;6209861;23;20251;-90
2021/04/05 20:27:31;;;;;;;2.50;1.20;;;;;;;;;;6211422;23;20191;-90
2021/04/05 20:30:40;;;;;;;1.87;0.67;;;;;;;;;;6209929;23;20199;-93
2021/04/05 20:33:54;;;;;;;1.60;0.87;;;;;;;;;;6208220;23;20171;-89
2021/04/05 20:37:12;;;;;;;1.57;0.80;;;;;;;;;;6208753;23;20171;-90
2021/04/05 20:40:20;;;;;;;0.60;0.60;;;;;;;;;;6209438;23;20179;-89
2021/04/05 20:43:26;;;;;;;0.60;0.50;;;;;;;;;;6209862;23;20619;-89
2021/04/05 20:46:39;;;;;;;0.90;0.70;;;;;;;;;;6208686;23;20170;-89
2021/04/05 20:49:48;;;;;;;1.40;0.73;;;;;;;;;;6207992;23;20151;-91
2021/04/05 20:52:57;;;;;;;1.30;0.90;;;;;;;;;;6209914;23;20163;-89
2021/04/05 20:56:06;;;;;;;1.43;0.50;;;;;;;;;;6210771;23;20244;-91
2021/04/05 20:59:12;;;;;;;1.37;0.87;;;;;;;;;;6210142;23;20175;-92
2021/04/05 21:02:17;;;;;;;3.77;1.00;;;;;;;;;;6210418;23;20199;-92
2021/04/05 21:05:26;;;;;;;2.23;0.90;;;;;;;;;;6211532;23;20175;-90
2021/04/05 21:08:34;;;;;;;1.40;0.80;;;;;;;;;;6211690;23;20175;-91
2021/04/05 21:11:45;;;;;;;0.80;0.60;;;;;;;;;;6207409;23;20206;-90
2021/04/05 21:14:52;;;;;;;0.53;0.53;;;;;;;;;;6207864;23;20283;-91
2021/04/05 21:17:58;;;;;;;1.20;0.70;;;;;;;;;;6210951;23;20179;-91
2021/04/05 21:21:05;;;;;;;2.83;0.60;;;;;;;;;;6213195;23;20171;-93
2021/04/05 21:24:16;;;;;;;1.73;0.70;;;;;;;;;;6213500;23;20615;-91
2021/04/05 21:27:24;;;;;;;1.77;0.80;;;;;;;;;;6212810;23;20174;-90
2021/04/05 21:30:37;;;;;;;0.80;0.60;;;;;;;;;;6213552;22;20171;-89
2021/04/05 21:33:46;;;;;;;1.63;0.70;;;;;;;;;;6211721;23;20219;-90
2021/04/05 21:36:52;;;;;;;2.97;1.00;;;;;;;;;;6214946;23;20170;-91
2021/04/05 21:40:02;;;;;;;4.97;1.00;;;;;;;;;;6212108;23;20167;-89
2021/04/05 21:43:09;;;;;;;2.57;0.90;;;;;;;;;;6213704;23;20194;-91
2021/04/05 21:46:18;;;;;;;2.63;0.70;;;;;;;;;;6212344;23;20290;-93